Terminal Aerodrome Forecast
Issued by NWS

Home | Current Version | Previous Version | Text Only | Print | Product List | Glossary On
Versions: 1 2 3 4 5 6 7 8 9 10 11 12 13
000
FTUS42 KTBW 292339
TAFLAL
TAF
KLAL 292339Z 3000/3024 31006KT P6SM SCT050
     FM300300 VRB03KT P6SM SCT050
     FM301400 VRB03KT P6SM SCT025 BKN250
     FM301700 27004KT P6SM SCT040 BKN250
     FM302000 29005KT P6SM VCTS BKN050CB
      AMD NOT SKED 3002/3011=

USA.gov is the U.S. government's official web portal to all federal, state and local government web resources and services.